sensor_id;sensor_type;location;lat;lon;timestamp;pressure;altitude;pressure_sealevel;temperature;humidity
21504;BME280;10913;51.992;9.228;2023-07-16T00:01:56;99566.31;;;22.41;98.74
21504;BME280;10913;51.992;9.228;2023-07-16T00:04:21;99594.19;;;22.40;98.28
21504;BME280;10913;51.992;9.228;2023-07-16T00:06:47;99579.66;;;22.42;97.84
21504;BME280;10913;51.992;9.228;2023-07-16T00:09:12;99578.91;;;22.40;98.43
21504;BME280;10913;51.992;9.228;2023-07-16T00:11:37;99591.50;;;22.40;98.26
21504;BME280;10913;51.992;9.228;2023-07-16T00:14:03;99564.59;;;22.40;98.17
21504;BME280;10913;51.992;9.228;2023-07-16T00:16:31;99527.13;;;22.37;98.37
21504;BME280;10913;51.992;9.228;2023-07-16T00:18:56;99569.53;;;22.33;98.45
21504;BME280;10913;51.992;9.228;2023-07-16T00:21:21;99572.31;;;22.31;97.69
21504;BME280;10913;51.992;9.228;2023-07-16T00:23:47;99585.69;;;22.33;97.06
21504;BME280;10913;51.992;9.228;2023-07-16T00:26:13;99603.66;;;22.32;95.76
21504;BME280;10913;51.992;9.228;2023-07-16T00:28:39;99601.06;;;22.31;94.53
21504;BME280;10913;51.992;9.228;2023-07-16T00:31:04;99600.31;;;22.29;93.33
21504;BME280;10913;51.992;9.228;2023-07-16T00:33:29;99594.06;;;22.28;91.86
21504;BME280;10913;51.992;9.228;2023-07-16T00:35:55;99575.31;;;22.27;89.94
21504;BME280;10913;51.992;9.228;2023-07-16T00:38:20;99587.16;;;22.24;88.51
21504;BME280;10913;51.992;9.228;2023-07-16T00:40:46;99580.03;;;22.23;87.34
21504;BME280;10913;51.992;9.228;2023-07-16T00:43:12;99609.84;;;22.20;86.43
21504;BME280;10913;51.992;9.228;2023-07-16T00:45:38;99626.94;;;22.19;85.31
21504;BME280;10913;51.992;9.228;2023-07-16T00:48:06;99612.75;;;22.17;85.50
21504;BME280;10913;51.992;9.228;2023-07-16T00:50:33;99650.63;;;22.14;84.15
21504;BME280;10913;51.992;9.228;2023-07-16T00:53:00;99656.19;;;22.11;84.33
21504;BME280;10913;51.992;9.228;2023-07-16T00:55:28;99640.25;;;22.08;84.56
21504;BME280;10913;51.992;9.228;2023-07-16T00:57:54;99642.94;;;22.08;84.47
21504;BME280;10913;51.992;9.228;2023-07-16T01:00:21;99617.00;;;22.07;83.91
21504;BME280;10913;51.992;9.228;2023-07-16T01:02:46;99618.91;;;22.05;83.88
21504;BME280;10913;51.992;9.228;2023-07-16T01:05:12;99643.31;;;22.02;84.00
21504;BME280;10913;51.992;9.228;2023-07-16T01:07:42;99654.16;;;22.00;83.94
21504;BME280;10913;51.992;9.228;2023-07-16T01:10:14;99670.50;;;21.97;84.39
21504;BME280;10913;51.992;9.228;2023-07-16T01:12:39;99667.22;;;21.92;84.36
21504;BME280;10913;51.992;9.228;2023-07-16T01:15:05;99672.81;;;21.89;84.46
21504;BME280;10913;51.992;9.228;2023-07-16T01:17:31;99671.25;;;21.85;84.77
21504;BME280;10913;51.992;9.228;2023-07-16T01:19:56;99658.00;;;21.82;84.68
21504;BME280;10913;51.992;9.228;2023-07-16T01:22:47;99665.41;;;21.79;84.30
21504;BME280;10913;51.992;9.228;2023-07-16T01:25:44;99654.75;;;21.77;84.99
21504;BME280;10913;51.992;9.228;2023-07-16T01:30:44;99665.03;;;21.71;84.88
21504;BME280;10913;51.992;9.228;2023-07-16T01:33:12;99653.59;;;21.67;84.25
21504;BME280;10913;51.992;9.228;2023-07-16T01:35:40;99657.34;;;21.64;84.39
21504;BME280;10913;51.992;9.228;2023-07-16T01:38:07;99647.63;;;21.62;84.28
21504;BME280;10913;51.992;9.228;2023-07-16T01:40:33;99643.31;;;21.59;85.22
21504;BME280;10913;51.992;9.228;2023-07-16T01:42:58;99648.81;;;21.58;85.66
21504;BME280;10913;51.992;9.228;2023-07-16T01:45:24;99649.78;;;21.57;85.58
21504;BME280;10913;51.992;9.228;2023-07-16T01:47:59;99644.50;;;21.55;85.60
21504;BME280;10913;51.992;9.228;2023-07-16T01:50:26;99661.56;;;21.54;86.28
21504;BME280;10913;51.992;9.228;2023-07-16T01:52:51;99674.16;;;21.54;85.19
21504;BME280;10913;51.992;9.228;2023-07-16T01:55:17;99680.56;;;21.51;84.97
21504;BME280;10913;51.992;9.228;2023-07-16T01:57:42;99662.81;;;21.49;85.33
21504;BME280;10913;51.992;9.228;2023-07-16T02:00:08;99666.38;;;21.49;86.12
21504;BME280;10913;51.992;9.228;2023-07-16T02:02:33;99683.63;;;21.45;85.64
21504;BME280;10913;51.992;9.228;2023-07-16T02:04:59;99689.00;;;21.45;86.32
21504;BME280;10913;51.992;9.228;2023-07-16T02:07:24;99674.59;;;21.46;86.48
21504;BME280;10913;51.992;9.228;2023-07-16T02:09:50;99677.38;;;21.45;86.35
21504;BME280;10913;51.992;9.228;2023-07-16T02:12:15;99674.03;;;21.41;86.27
21504;BME280;10913;51.992;9.228;2023-07-16T02:14:40;99670.78;;;21.36;86.55
21504;BME280;10913;51.992;9.228;2023-07-16T02:17:06;99686.13;;;21.34;86.92
21504;BME280;10913;51.992;9.228;2023-07-16T02:19:31;99669.31;;;21.30;87.46
21504;BME280;10913;51.992;9.228;2023-07-16T02:21:56;99681.97;;;21.28;87.85
21504;BME280;10913;51.992;9.228;2023-07-16T02:24:22;99687.63;;;21.24;88.31
21504;BME280;10913;51.992;9.228;2023-07-16T02:26:48;99685.97;;;21.21;88.99
21504;BME280;10913;51.992;9.228;2023-07-16T02:29:13;99683.44;;;21.18;89.36
21504;BME280;10913;51.992;9.228;2023-07-16T02:31:38;99687.00;;;21.19;89.86
21504;BME280;10913;51.992;9.228;2023-07-16T02:34:04;99676.25;;;21.19;89.59
21504;BME280;10913;51.992;9.228;2023-07-16T02:36:29;99681.75;;;21.17;89.69
21504;BME280;10913;51.992;9.228;2023-07-16T02:38:54;99687.84;;;21.19;89.72
21504;BME280;10913;51.992;9.228;2023-07-16T02:41:20;99685.38;;;21.16;90.05
21504;BME280;10913;51.992;9.228;2023-07-16T02:43:46;99680.97;;;21.15;89.96
21504;BME280;10913;51.992;9.228;2023-07-16T02:46:12;99693.63;;;21.13;89.89
21504;BME280;10913;51.992;9.228;2023-07-16T02:48:37;99693.88;;;21.09;89.97
21504;BME280;10913;51.992;9.228;2023-07-16T02:51:03;99689.56;;;21.06;90.10
21504;BME280;10913;51.992;9.228;2023-07-16T02:53:28;99695.03;;;21.05;90.60
21504;BME280;10913;51.992;9.228;2023-07-16T02:55:53;99704.22;;;21.01;90.44
21504;BME280;10913;51.992;9.228;2023-07-16T02:58:19;99710.66;;;20.98;90.71
21504;BME280;10913;51.992;9.228;2023-07-16T03:00:44;99712.56;;;20.96;90.66
21504;BME280;10913;51.992;9.228;2023-07-16T03:03:09;99717.25;;;20.92;90.83
21504;BME280;10913;51.992;9.228;2023-07-16T03:05:35;99717.59;;;20.86;91.21
21504;BME280;10913;51.992;9.228;2023-07-16T03:08:00;99710.81;;;20.79;91.33
21504;BME280;10913;51.992;9.228;2023-07-16T03:10:25;99721.78;;;20.76;91.28
21504;BME280;10913;51.992;9.228;2023-07-16T03:12:52;99722.81;;;20.74;91.66
21504;BME280;10913;51.992;9.228;2023-07-16T03:15:17;99730.09;;;20.72;91.93
21504;BME280;10913;51.992;9.228;2023-07-16T03:17:43;99731.91;;;20.71;91.51
21504;BME280;10913;51.992;9.228;2023-07-16T03:20:08;99733.81;;;20.69;91.70
21504;BME280;10913;51.992;9.228;2023-07-16T03:22:34;99740.22;;;20.67;91.65
21504;BME280;10913;51.992;9.228;2023-07-16T03:25:00;99744.81;;;20.64;91.92
21504;BME280;10913;51.992;9.228;2023-07-16T03:27:25;99745.84;;;20.62;91.95
21504;BME280;10913;51.992;9.228;2023-07-16T03:29:50;99752.34;;;20.58;91.84
21504;BME280;10913;51.992;9.228;2023-07-16T03:32:16;99753.31;;;20.57;91.94
21504;BME280;10913;51.992;9.228;2023-07-16T03:34:41;99747.16;;;20.55;91.79
21504;BME280;10913;51.992;9.228;2023-07-16T03:37:06;99745.50;;;20.52;91.90
21504;BME280;10913;51.992;9.228;2023-07-16T03:39:32;99751.03;;;20.49;92.21
21504;BME280;10913;51.992;9.228;2023-07-16T03:41:57;99761.31;;;20.41;92.10
21504;BME280;10913;51.992;9.228;2023-07-16T03:44:22;99766.16;;;20.35;92.57
21504;BME280;10913;51.992;9.228;2023-07-16T03:46:48;99768.72;;;20.38;92.71
21504;BME280;10913;51.992;9.228;2023-07-16T03:49:13;99763.47;;;20.35;92.61
21504;BME280;10913;51.992;9.228;2023-07-16T03:51:38;99768.72;;;20.38;92.50
21504;BME280;10913;51.992;9.228;2023-07-16T03:54:04;99770.56;;;20.36;92.28
21504;BME280;10913;51.992;9.228;2023-07-16T03:56:29;99767.88;;;20.36;92.06
21504;BME280;10913;51.992;9.228;2023-07-16T03:58:54;99770.81;;;20.31;92.28
21504;BME280;10913;51.992;9.228;2023-07-16T04:01:20;99774.53;;;20.28;92.13
21504;BME280;10913;51.992;9.228;2023-07-16T04:03:45;99771.84;;;20.28;92.64
21504;BME280;10913;51.992;9.228;2023-07-16T04:06:12;99779.72;;;20.32;92.24
21504;BME280;10913;51.992;9.228;2023-07-16T04:08:37;99776.97;;;20.33;92.12
21504;BME280;10913;51.992;9.228;2023-07-16T04:11:05;99783.22;;;20.34;91.60
21504;BME280;10913;51.992;9.228;2023-07-16T04:13:31;99782.41;;;20.32;91.58
21504;BME280;10913;51.992;9.228;2023-07-16T04:15:56;99793.06;;;20.33;91.40
21504;BME280;10913;51.992;9.228;2023-07-16T04:18:23;99790.47;;;20.32;91.39
21504;BME280;10913;51.992;9.228;2023-07-16T04:20:49;99789.19;;;20.39;90.83
21504;BME280;10913;51.992;9.228;2023-07-16T04:23:15;99796.41;;;20.38;90.11
21504;BME280;10913;51.992;9.228;2023-07-16T04:25:40;99800.72;;;20.41;89.86
21504;BME280;10913;51.992;9.228;2023-07-16T04:28:06;99802.59;;;20.39;90.29
21504;BME280;10913;51.992;9.228;2023-07-16T04:30:31;99807.97;;;20.39;90.07
21504;BME280;10913;51.992;9.228;2023-07-16T04:32:56;99810.81;;;20.36;90.19
21504;BME280;10913;51.992;9.228;2023-07-16T04:35:22;99804.66;;;20.34;89.78
21504;BME280;10913;51.992;9.228;2023-07-16T04:37:47;99818.09;;;20.34;90.03
21504;BME280;10913;51.992;9.228;2023-07-16T04:40:13;99815.47;;;20.32;89.81
21504;BME280;10913;51.992;9.228;2023-07-16T04:42:38;99820.75;;;20.34;89.68
21504;BME280;10913;51.992;9.228;2023-07-16T04:45:04;99817.97;;;20.37;89.88
21504;BME280;10913;51.992;9.228;2023-07-16T04:47:30;99823.03;;;20.41;89.88
21504;BME280;10913;51.992;9.228;2023-07-16T04:49:58;99818.38;;;20.45;89.34
21504;BME280;10913;51.992;9.228;2023-07-16T04:52:23;99826.34;;;20.46;89.41
21504;BME280;10913;51.992;9.228;2023-07-16T04:54:49;99823.75;;;20.45;89.58
21504;BME280;10913;51.992;9.228;2023-07-16T04:57:14;99829.13;;;20.45;89.25
21504;BME280;10913;51.992;9.228;2023-07-16T04:59:39;99832.75;;;20.44;88.95
21504;BME280;10913;51.992;9.228;2023-07-16T05:02:06;99829.81;;;20.48;89.29
21504;BME280;10913;51.992;9.228;2023-07-16T05:04:32;99834.16;;;20.51;89.29
21504;BME280;10913;51.992;9.228;2023-07-16T05:06:57;99838.34;;;20.56;89.06
21504;BME280;10913;51.992;9.228;2023-07-16T05:09:23;99843.41;;;20.61;88.82
21504;BME280;10913;51.992;9.228;2023-07-16T05:11:48;99846.09;;;20.61;88.76
21504;BME280;10913;51.992;9.228;2023-07-16T05:14:13;99847.75;;;20.48;88.64
21504;BME280;10913;51.992;9.228;2023-07-16T05:16:39;99852.16;;;20.49;88.94
21504;BME280;10913;51.992;9.228;2023-07-16T05:19:04;99852.31;;;20.46;88.57
21504;BME280;10913;51.992;9.228;2023-07-16T05:21:29;99859.59;;;20.44;89.13
21504;BME280;10913;51.992;9.228;2023-07-16T05:23:55;99870.00;;;20.50;89.37
21504;BME280;10913;51.992;9.228;2023-07-16T05:26:20;99878.75;;;20.53;89.48
21504;BME280;10913;51.992;9.228;2023-07-16T05:28:45;99882.31;;;20.54;88.70
21504;BME280;10913;51.992;9.228;2023-07-16T05:31:11;99884.91;;;20.55;88.78
21504;BME280;10913;51.992;9.228;2023-07-16T05:33:36;99881.78;;;20.63;88.75
21504;BME280;10913;51.992;9.228;2023-07-16T05:36:02;99881.63;;;20.66;87.47
21504;BME280;10913;51.992;9.228;2023-07-16T05:38:27;99881.63;;;20.66;88.08
21504;BME280;10913;51.992;9.228;2023-07-16T05:40:52;99893.78;;;20.73;88.15
21504;BME280;10913;51.992;9.228;2023-07-16T05:43:18;99884.41;;;20.80;88.05
21504;BME280;10913;51.992;9.228;2023-07-16T05:45:43;99896.56;;;20.87;87.46
21504;BME280;10913;51.992;9.228;2023-07-16T05:48:09;99902.88;;;20.86;85.78
21504;BME280;10913;51.992;9.228;2023-07-16T05:50:34;99905.56;;;20.86;86.71
21504;BME280;10913;51.992;9.228;2023-07-16T05:52:59;99912.81;;;20.84;86.67
21504;BME280;10913;51.992;9.228;2023-07-16T05:55:25;99909.44;;;20.81;86.28
21504;BME280;10913;51.992;9.228;2023-07-16T05:57:50;99920.09;;;20.82;86.31
21504;BME280;10913;51.992;9.228;2023-07-16T06:00:15;99926.25;;;20.84;86.14
21504;BME280;10913;51.992;9.228;2023-07-16T06:02:41;99921.84;;;20.83;84.24
21504;BME280;10913;51.992;9.228;2023-07-16T06:05:07;99926.34;;;20.83;84.28
21504;BME280;10913;51.992;9.228;2023-07-16T06:07:32;99926.09;;;20.87;84.44
21504;BME280;10913;51.992;9.228;2023-07-16T06:09:58;99928.78;;;20.87;82.84
21504;BME280;10913;51.992;9.228;2023-07-16T06:12:23;99934.16;;;20.87;83.62
21504;BME280;10913;51.992;9.228;2023-07-16T06:14:49;99935.41;;;20.97;84.31
21504;BME280;10913;51.992;9.228;2023-07-16T06:17:14;99928.09;;;20.99;82.60
21504;BME280;10913;51.992;9.228;2023-07-16T06:19:40;99938.34;;;21.09;82.17
21504;BME280;10913;51.992;9.228;2023-07-16T06:22:05;99930.72;;;21.17;81.51
21504;BME280;10913;51.992;9.228;2023-07-16T06:24:30;99942.72;;;21.27;81.54
21504;BME280;10913;51.992;9.228;2023-07-16T06:26:56;99958.66;;;21.30;81.13
21504;BME280;10913;51.992;9.228;2023-07-16T06:29:21;99956.84;;;21.30;80.96
21504;BME280;10913;51.992;9.228;2023-07-16T06:31:59;99954.31;;;21.27;79.07
21504;BME280;10913;51.992;9.228;2023-07-16T06:34:25;99958.84;;;21.27;78.14
21504;BME280;10913;51.992;9.228;2023-07-16T06:36:50;99971.16;;;21.31;78.38
21504;BME280;10913;51.992;9.228;2023-07-16T06:39:16;99973.06;;;21.29;75.65
21504;BME280;10913;51.992;9.228;2023-07-16T06:41:41;99976.06;;;21.23;74.12
21504;BME280;10913;51.992;9.228;2023-07-16T06:44:07;99984.91;;;21.25;75.69
21504;BME280;10913;51.992;9.228;2023-07-16T06:46:32;99985.72;;;21.27;74.36
21504;BME280;10913;51.992;9.228;2023-07-16T06:48:58;99982.94;;;21.28;73.78
21504;BME280;10913;51.992;9.228;2023-07-16T06:51:23;99979.63;;;21.39;74.15
21504;BME280;10913;51.992;9.228;2023-07-16T06:53:48;99977.91;;;21.54;75.42
21504;BME280;10913;51.992;9.228;2023-07-16T06:56:14;99986.47;;;21.60;72.04
21504;BME280;10913;51.992;9.228;2023-07-16T06:58:40;99981.53;;;21.69;71.46
21504;BME280;10913;51.992;9.228;2023-07-16T07:01:05;99974.09;;;21.74;71.91
21504;BME280;10913;51.992;9.228;2023-07-16T07:03:30;99977.47;;;21.77;71.88
21504;BME280;10913;51.992;9.228;2023-07-16T07:05:58;99974.91;;;21.90;72.45
21504;BME280;10913;51.992;9.228;2023-07-16T07:08:23;99977.78;;;22.03;72.90
21504;BME280;10913;51.992;9.228;2023-07-16T07:10:49;99976.31;;;21.97;70.30
21504;BME280;10913;51.992;9.228;2023-07-16T07:13:15;99972.22;;;21.90;71.68
21504;BME280;10913;51.992;9.228;2023-07-16T07:15:41;99977.56;;;21.76;68.57
21504;BME280;10913;51.992;9.228;2023-07-16T07:18:07;99977.00;;;21.85;69.09
21504;BME280;10913;51.992;9.228;2023-07-16T07:20:32;99973.00;;;21.92;70.45
21504;BME280;10913;51.992;9.228;2023-07-16T07:22:57;99975.63;;;21.93;69.41
21504;BME280;10913;51.992;9.228;2023-07-16T07:25:27;99988.28;;;21.91;69.40
21504;BME280;10913;51.992;9.228;2023-07-16T07:27:52;99974.50;;;21.82;68.99
21504;BME280;10913;51.992;9.228;2023-07-16T07:30:18;99979.09;;;21.80;69.59
21504;BME280;10913;51.992;9.228;2023-07-16T07:32:43;99981.47;;;21.70;69.42
21504;BME280;10913;51.992;9.228;2023-07-16T07:35:08;99984.16;;;21.70;70.54
21504;BME280;10913;51.992;9.228;2023-07-16T07:37:34;99983.09;;;21.73;71.36
21504;BME280;10913;51.992;9.228;2023-07-16T07:40:00;99986.19;;;21.81;70.54
21504;BME280;10913;51.992;9.228;2023-07-16T07:42:25;99985.34;;;21.96;70.90
21504;BME280;10913;51.992;9.228;2023-07-16T07:44:52;99977.34;;;22.10;69.80
21504;BME280;10913;51.992;9.228;2023-07-16T07:47:17;99980.81;;;22.12;68.37
21504;BME280;10913;51.992;9.228;2023-07-16T07:49:43;99981.69;;;22.13;69.80
21504;BME280;10913;51.992;9.228;2023-07-16T07:52:08;99991.19;;;22.18;70.73
21504;BME280;10913;51.992;9.228;2023-07-16T07:54:33;99983.00;;;22.36;70.57
21504;BME280;10913;51.992;9.228;2023-07-16T07:57:01;99995.53;;;22.51;69.95
21504;BME280;10913;51.992;9.228;2023-07-16T07:59:29;99988.13;;;22.54;69.33
21504;BME280;10913;51.992;9.228;2023-07-16T08:01:54;99995.16;;;22.57;67.96
21504;BME280;10913;51.992;9.228;2023-07-16T08:04:20;100001.19;;;22.46;68.28
21504;BME280;10913;51.992;9.228;2023-07-16T08:06:45;99998.41;;;22.48;69.16
21504;BME280;10913;51.992;9.228;2023-07-16T08:09:11;99998.31;;;22.49;68.09
21504;BME280;10913;51.992;9.228;2023-07-16T08:11:36;100001.28;;;22.59;68.45
21504;BME280;10913;51.992;9.228;2023-07-16T08:14:01;99995.84;;;22.75;68.02
21504;BME280;10913;51.992;9.228;2023-07-16T08:16:27;99992.63;;;22.98;68.23
21504;BME280;10913;51.992;9.228;2023-07-16T08:18:52;99983.28;;;23.18;66.39
21504;BME280;10913;51.992;9.228;2023-07-16T08:21:17;99983.56;;;23.27;66.83
21504;BME280;10913;51.992;9.228;2023-07-16T08:23:47;99979.78;;;23.30;65.56
21504;BME280;10913;51.992;9.228;2023-07-16T08:26:12;99975.91;;;23.48;66.76
21504;BME280;10913;51.992;9.228;2023-07-16T08:28:38;99973.00;;;23.65;66.24
21504;BME280;10913;51.992;9.228;2023-07-16T08:31:03;99972.06;;;23.79;65.67
21504;BME280;10913;51.992;9.228;2023-07-16T08:33:28;99966.53;;;23.95;65.42
21504;BME280;10913;51.992;9.228;2023-07-16T08:35:54;99980.47;;;24.01;64.41
21504;BME280;10913;51.992;9.228;2023-07-16T08:38:19;99972.63;;;24.11;64.17
21504;BME280;10913;51.992;9.228;2023-07-16T08:40:47;99980.13;;;23.93;63.91
21504;BME280;10913;51.992;9.228;2023-07-16T08:43:15;99984.00;;;23.62;64.34
21504;BME280;10913;51.992;9.228;2023-07-16T08:45:41;99987.44;;;23.64;64.79
21504;BME280;10913;51.992;9.228;2023-07-16T08:48:10;100001.31;;;23.58;64.53
21504;BME280;10913;51.992;9.228;2023-07-16T08:50:36;99993.91;;;23.48;64.17
21504;BME280;10913;51.992;9.228;2023-07-16T08:53:04;99987.25;;;23.67;63.94
21504;BME280;10913;51.992;9.228;2023-07-16T08:55:30;99991.03;;;23.92;62.85
21504;BME280;10913;51.992;9.228;2023-07-16T08:57:56;100006.22;;;24.20;63.28
21504;BME280;10913;51.992;9.228;2023-07-16T09:00:22;100010.19;;;24.41;61.76
21504;BME280;10913;51.992;9.228;2023-07-16T09:02:48;100012.50;;;24.47;61.63
21504;BME280;10913;51.992;9.228;2023-07-16T09:05:14;100012.84;;;24.55;61.53
21504;BME280;10913;51.992;9.228;2023-07-16T09:07:40;100004.38;;;24.60;60.13
21504;BME280;10913;51.992;9.228;2023-07-16T09:10:06;100001.81;;;24.71;58.65
21504;BME280;10913;51.992;9.228;2023-07-16T09:12:31;100004.31;;;24.74;58.01
21504;BME280;10913;51.992;9.228;2023-07-16T09:14:57;100005.94;;;24.89;59.83
21504;BME280;10913;51.992;9.228;2023-07-16T09:17:23;100009.19;;;25.07;59.16
21504;BME280;10913;51.992;9.228;2023-07-16T09:19:50;100003.34;;;25.00;57.21
21504;BME280;10913;51.992;9.228;2023-07-16T09:22:20;100002.69;;;25.22;58.18
21504;BME280;10913;51.992;9.228;2023-07-16T09:24:46;99998.84;;;25.50;57.34
21504;BME280;10913;51.992;9.228;2023-07-16T09:27:12;100008.25;;;25.70;56.28
21504;BME280;10913;51.992;9.228;2023-07-16T09:29:38;100009.47;;;25.90;56.48
21504;BME280;10913;51.992;9.228;2023-07-16T09:32:04;100011.47;;;25.99;58.00
21504;BME280;10913;51.992;9.228;2023-07-16T09:34:32;100022.47;;;26.08;58.81
21504;BME280;10913;51.992;9.228;2023-07-16T09:36:59;100016.88;;;25.99;56.81
21504;BME280;10913;51.992;9.228;2023-07-16T09:39:26;100023.88;;;25.90;57.25
21504;BME280;10913;51.992;9.228;2023-07-16T09:41:52;100023.31;;;25.98;57.30
21504;BME280;10913;51.992;9.228;2023-07-16T09:44:17;100029.00;;;26.06;56.54
21504;BME280;10913;51.992;9.228;2023-07-16T09:46:44;100028.91;;;26.31;57.78
21504;BME280;10913;51.992;9.228;2023-07-16T09:49:10;100032.84;;;26.38;55.15
21504;BME280;10913;51.992;9.228;2023-07-16T09:51:37;100024.63;;;26.16;55.47
21504;BME280;10913;51.992;9.228;2023-07-16T09:54:03;100025.59;;;26.15;54.87
21504;BME280;10913;51.992;9.228;2023-07-16T09:56:41;100027.06;;;26.19;56.54
21504;BME280;10913;51.992;9.228;2023-07-16T09:59:14;100029.22;;;26.27;55.23
21504;BME280;10913;51.992;9.228;2023-07-16T10:01:40;100025.31;;;26.07;54.94
21504;BME280;10913;51.992;9.228;2023-07-16T10:06:36;100034.84;;;26.36;55.02
21504;BME280;10913;51.992;9.228;2023-07-16T10:09:02;100031.00;;;26.39;56.12
21504;BME280;10913;51.992;9.228;2023-07-16T10:11:27;100028.19;;;26.17;53.56
21504;BME280;10913;51.992;9.228;2023-07-16T10:13:52;100046.78;;;26.21;55.35
21504;BME280;10913;51.992;9.228;2023-07-16T10:16:21;100026.09;;;26.33;55.85
21504;BME280;10913;51.992;9.228;2023-07-16T10:18:51;100039.72;;;26.55;53.50
21504;BME280;10913;51.992;9.228;2023-07-16T10:21:23;100036.41;;;26.63;53.19
21504;BME280;10913;51.992;9.228;2023-07-16T10:23:57;100043.38;;;26.89;54.94
21504;BME280;10913;51.992;9.228;2023-07-16T10:26:27;100036.25;;;26.99;54.06
21504;BME280;10913;51.992;9.228;2023-07-16T10:28:54;100042.44;;;27.13;53.67
21504;BME280;10913;51.992;9.228;2023-07-16T10:31:23;100041.84;;;27.42;53.57
21504;BME280;10913;51.992;9.228;2023-07-16T10:36:23;100046.63;;;27.39;52.03
21504;BME280;10913;51.992;9.228;2023-07-16T10:38:48;100056.97;;;27.00;51.85
21504;BME280;10913;51.992;9.228;2023-07-16T10:41:14;100048.56;;;26.92;53.95
21504;BME280;10913;51.992;9.228;2023-07-16T10:43:39;100044.66;;;26.96;53.15
21504;BME280;10913;51.992;9.228;2023-07-16T10:46:05;100042.66;;;26.98;53.76
21504;BME280;10913;51.992;9.228;2023-07-16T10:48:31;100063.88;;;27.04;53.07
21504;BME280;10913;51.992;9.228;2023-07-16T10:50:56;100055.25;;;26.99;52.81
21504;BME280;10913;51.992;9.228;2023-07-16T10:53:21;100060.66;;;26.99;54.42
21504;BME280;10913;51.992;9.228;2023-07-16T10:55:47;100058.59;;;26.79;53.47
21504;BME280;10913;51.992;9.228;2023-07-16T10:58:12;100051.72;;;26.75;53.44
21504;BME280;10913;51.992;9.228;2023-07-16T11:00:39;100047.53;;;26.82;53.98
21504;BME280;10913;51.992;9.228;2023-07-16T11:03:05;100050.94;;;26.97;54.79
21504;BME280;10913;51.992;9.228;2023-07-16T11:05:30;100059.63;;;26.89;54.27
21504;BME280;10913;51.992;9.228;2023-07-16T11:07:56;100057.75;;;26.78;53.97
21504;BME280;10913;51.992;9.228;2023-07-16T11:10:23;100059.34;;;26.70;54.14
21504;BME280;10913;51.992;9.228;2023-07-16T11:12:52;100057.59;;;26.69;54.62
21504;BME280;10913;51.992;9.228;2023-07-16T11:15:33;100053.63;;;26.62;54.19
21504;BME280;10913;51.992;9.228;2023-07-16T11:18:00;100063.25;;;26.55;53.07
21504;BME280;10913;51.992;9.228;2023-07-16T11:20:26;100060.47;;;26.43;53.50
21504;BME280;10913;51.992;9.228;2023-07-16T11:22:51;100057.06;;;26.29;53.79
21504;BME280;10913;51.992;9.228;2023-07-16T11:25:17;100047.41;;;26.37;54.46
21504;BME280;10913;51.992;9.228;2023-07-16T11:27:43;100058.75;;;26.42;54.70
21504;BME280;10913;51.992;9.228;2023-07-16T11:30:09;100048.66;;;26.45;55.06
21504;BME280;10913;51.992;9.228;2023-07-16T11:32:35;100049.75;;;26.42;54.48
21504;BME280;10913;51.992;9.228;2023-07-16T11:35:05;100053.84;;;26.48;54.52
21504;BME280;10913;51.992;9.228;2023-07-16T11:37:33;100058.09;;;26.39;54.43
21504;BME280;10913;51.992;9.228;2023-07-16T11:40:04;100052.50;;;26.53;54.83
21504;BME280;10913;51.992;9.228;2023-07-16T11:42:34;100056.22;;;26.63;53.52
21504;BME280;10913;51.992;9.228;2023-07-16T11:45:01;100057.09;;;26.64;54.17
21504;BME280;10913;51.992;9.228;2023-07-16T11:47:27;100050.25;;;26.82;55.38
21504;BME280;10913;51.992;9.228;2023-07-16T11:49:53;100061.38;;;26.90;54.29
21504;BME280;10913;51.992;9.228;2023-07-16T11:52:26;100063.97;;;26.92;54.83
21504;BME280;10913;51.992;9.228;2023-07-16T11:54:53;100063.63;;;26.96;54.43
21504;BME280;10913;51.992;9.228;2023-07-16T11:57:18;100061.03;;;26.95;55.26
21504;BME280;10913;51.992;9.228;2023-07-16T11:59:44;100063.22;;;26.90;54.83
21504;BME280;10913;51.992;9.228;2023-07-16T12:02:09;100051.22;;;26.81;53.98
21504;BME280;10913;51.992;9.228;2023-07-16T12:04:35;100063.03;;;26.69;54.42
21504;BME280;10913;51.992;9.228;2023-07-16T12:07:00;100061.31;;;26.68;55.03
21504;BME280;10913;51.992;9.228;2023-07-16T12:09:25;100068.25;;;26.83;54.84
21504;BME280;10913;51.992;9.228;2023-07-16T12:11:51;100061.38;;;26.90;54.95
21504;BME280;10913;51.992;9.228;2023-07-16T12:14:16;100069.31;;;27.04;54.48
21504;BME280;10913;51.992;9.228;2023-07-16T12:16:42;100072.28;;;27.13;54.08
21504;BME280;10913;51.992;9.228;2023-07-16T12:19:09;100060.19;;;27.05;54.42
21504;BME280;10913;51.992;9.228;2023-07-16T12:21:35;100059.63;;;26.89;53.91
21504;BME280;10913;51.992;9.228;2023-07-16T12:24:00;100059.38;;;26.46;53.35
21504;BME280;10913;51.992;9.228;2023-07-16T12:26:26;100072.44;;;26.28;54.55
21504;BME280;10913;51.992;9.228;2023-07-16T12:28:51;100060.66;;;26.29;54.06
21504;BME280;10913;51.992;9.228;2023-07-16T12:31:17;100064.38;;;26.39;54.88
21504;BME280;10913;51.992;9.228;2023-07-16T12:33:43;100063.25;;;26.55;54.44
21504;BME280;10913;51.992;9.228;2023-07-16T12:36:09;100080.91;;;26.71;56.24
21504;BME280;10913;51.992;9.228;2023-07-16T12:38:34;100061.84;;;26.84;53.12
21504;BME280;10913;51.992;9.228;2023-07-16T12:40:59;100070.94;;;26.83;53.72
21504;BME280;10913;51.992;9.228;2023-07-16T12:43:25;100066.38;;;26.84;54.13
21504;BME280;10913;51.992;9.228;2023-07-16T12:45:50;100066.91;;;26.89;53.78
21504;BME280;10913;51.992;9.228;2023-07-16T12:48:16;100077.19;;;26.96;54.13
21504;BME280;10913;51.992;9.228;2023-07-16T12:50:41;100065.75;;;26.80;53.15
21504;BME280;10913;51.992;9.228;2023-07-16T12:53:07;100077.13;;;26.85;54.68
21504;BME280;10913;51.992;9.228;2023-07-16T12:55:32;100074.50;;;27.07;54.88
21504;BME280;10913;51.992;9.228;2023-07-16T12:57:59;100064.41;;;27.32;54.82
21504;BME280;10913;51.992;9.228;2023-07-16T13:00:24;100075.88;;;27.47;54.31